Time;durP1;ratioP1;P1;durP2;ratioP2;P2;SDS_P1;SDS_P2;PMS_P1;PMS_P2;Temp;Humidity;BMP_temperature;BMP_pressure;BME280_temperature;BME280_humidity;BME280_pressure;Samples;Min_cycle;Max_cycle;Signal;HPM_P1;HPM_P2
2021/06/27 00:02:08;;;;;;;31.53;28.13;;;18.50;99.90;;;;;;5037015;28;20462;-78
2021/06/27 00:04:36;;;;;;;33.00;28.60;;;18.50;99.90;;;;;;5034756;28;20473;-78
2021/06/27 00:07:04;;;;;;;36.87;29.77;;;18.40;99.90;;;;;;5049086;28;20478;-77
2021/06/27 00:09:33;;;;;;;33.50;28.60;;;18.40;99.90;;;;;;5034200;28;20539;-78
2021/06/27 00:12:01;;;;;;;34.37;27.77;;;18.40;99.90;;;;;;5044706;28;20439;-78
2021/06/27 00:14:29;;;;;;;31.43;24.47;;;18.40;99.90;;;;;;5048521;28;20443;-78
2021/06/27 00:16:57;;;;;;;34.67;28.70;;;18.40;99.90;;;;;;5046269;28;20533;-79
2021/06/27 00:19:24;;;;;;;32.70;26.50;;;18.40;99.90;;;;;;5044211;28;20514;-79
2021/06/27 00:21:52;;;;;;;34.07;29.07;;;18.30;99.90;;;;;;5050635;28;20529;-79
2021/06/27 00:24:19;;;;;;;34.87;28.27;;;18.30;99.90;;;;;;5051628;28;20473;-79
2021/06/27 00:26:51;;;;;;;33.33;26.53;;;18.30;99.90;;;;;;5049559;28;20447;-79
2021/06/27 00:29:20;;;;;;;32.60;25.10;;;18.30;99.90;;;;;;5046372;28;20924;-81
2021/06/27 00:31:54;;;;;;;35.40;27.97;;;18.20;99.90;;;;;;5047481;28;20455;-80
2021/06/27 00:34:21;;;;;;;30.97;25.00;;;18.20;99.90;;;;;;5047854;28;20861;-80
2021/06/27 00:37:02;;;;;;;39.80;30.80;;;18.00;99.90;;;;;;5046437;28;20450;-78
2021/06/27 00:39:29;;;;;;;36.67;30.10;;;18.10;99.90;;;;;;5032224;28;20505;-80
2021/06/27 00:41:58;;;;;;;42.70;33.03;;;18.10;99.90;;;;;;5032655;28;20446;-79
2021/06/27 00:44:26;;;;;;;35.97;31.03;;;18.00;99.90;;;;;;5050585;28;20445;-79
2021/06/27 00:46:54;;;;;;;40.03;32.67;;;18.00;99.90;;;;;;5047863;28;20973;-79
2021/06/27 00:49:22;;;;;;;44.80;30.80;;;17.90;99.90;;;;;;5046650;28;20455;-79
2021/06/27 00:51:49;;;;;;;42.28;33.00;;;17.80;99.90;;;;;;5036664;28;20965;-80
2021/06/27 00:54:16;;;;;;;38.58;32.22;;;17.80;99.90;;;;;;5042801;28;20230;-80
2021/06/27 00:56:45;;;;;;;39.40;33.07;;;17.70;99.90;;;;;;5046074;28;20200;-81
2021/06/27 00:59:15;;;;;;;37.72;31.92;;;17.70;99.90;;;;;;5044647;28;20504;-78
2021/06/27 01:01:43;;;;;;;37.47;30.63;;;17.60;99.90;;;;;;5049233;28;20213;-80
2021/06/27 01:04:10;;;;;;;40.33;31.70;;;17.60;99.90;;;;;;5040517;28;20855;-80
2021/06/27 01:09:19;;;;;;;48.63;35.70;;;17.50;99.90;;;;;;5047687;28;20238;-80
2021/06/27 01:11:46;;;;;;;42.58;33.13;;;17.50;99.90;;;;;;5047046;28;20341;-79
2021/06/27 01:14:15;;;;;;;43.25;32.40;;;17.50;99.90;;;;;;5047561;28;20216;-81
2021/06/27 01:16:44;;;;;;;47.85;34.40;;;17.50;99.90;;;;;;5038586;28;20311;-79
2021/06/27 01:19:11;;;;;;;46.05;35.13;;;17.50;99.90;;;;;;5040618;28;20235;-79
2021/06/27 01:21:39;;;;;;;46.22;34.60;;;17.40;99.90;;;;;;5040348;28;20301;-80
2021/06/27 01:24:07;;;;;;;42.20;33.77;;;17.40;99.90;;;;;;5034221;28;20219;-80
2021/06/27 01:26:35;;;;;;;40.90;33.22;;;17.40;99.90;;;;;;5043555;28;20535;-80
2021/06/27 01:29:02;;;;;;;47.38;34.72;;;17.40;99.90;;;;;;5046347;28;20286;-78
2021/06/27 01:31:30;;;;;;;41.70;32.17;;;17.40;99.90;;;;;;5043302;28;20198;-81
2021/06/27 01:33:57;;;;;;;42.58;30.85;;;17.40;99.90;;;;;;5046805;28;20271;-80
2021/06/27 01:36:25;;;;;;;46.53;34.90;;;17.40;99.90;;;;;;5045276;28;20199;-80
2021/06/27 01:38:53;;;;;;;38.10;30.77;;;17.30;99.90;;;;;;5050445;28;20255;-79
2021/06/27 01:41:21;;;;;;;53.23;35.77;;;17.30;99.90;;;;;;5051249;28;20454;-78
2021/06/27 01:43:48;;;;;;;44.22;33.65;;;17.30;99.90;;;;;;5052062;28;20448;-81
2021/06/27 01:46:15;;;;;;;38.95;32.05;;;17.30;99.90;;;;;;5049257;28;20210;-79
2021/06/27 01:48:42;;;;;;;40.95;32.38;;;17.30;99.90;;;;;;5044667;28;20281;-79
2021/06/27 01:51:10;;;;;;;44.75;36.40;;;17.30;99.90;;;;;;5049415;28;20218;-80
2021/06/27 01:53:39;;;;;;;50.40;36.25;;;17.30;99.90;;;;;;5048068;28;20292;-79
2021/06/27 01:56:08;;;;;;;41.55;30.92;;;17.20;99.90;;;;;;5034672;28;20291;-79
2021/06/27 01:58:37;;;;;;;42.30;36.35;;;17.20;99.90;;;;;;5041990;28;20263;-80
2021/06/27 02:01:16;;;;;;;49.13;36.47;;;17.20;99.90;;;;;;5043980;28;20198;-79
2021/06/27 02:03:44;;;;;;;47.95;37.55;;;17.20;99.90;;;;;;5039819;28;20225;-80
2021/06/27 02:06:11;;;;;;;54.38;38.60;;;17.20;99.90;;;;;;5047382;28;20230;-79
2021/06/27 02:08:43;;;;;;;42.92;33.80;;;17.10;99.90;;;;;;5043422;28;20231;-80
2021/06/27 02:11:14;;;;;;;44.58;34.55;;;17.20;99.90;;;;;;5037481;28;20198;-80
2021/06/27 02:13:41;;;;;;;43.55;33.30;;;17.20;99.90;;;;;;5047994;28;20203;-79
2021/06/27 02:16:10;;;;;;;48.92;35.58;;;17.20;99.90;;;;;;5050043;28;20252;-80
2021/06/27 02:18:39;;;;;;;45.35;36.33;;;17.20;99.90;;;;;;5048591;28;20234;-80
2021/06/27 02:21:08;;;;;;;44.67;32.45;;;17.20;99.90;;;;;;5042473;28;20278;-80
2021/06/27 02:23:35;;;;;;;47.63;34.33;;;17.20;99.90;;;;;;5036262;28;20205;-80
2021/06/27 02:26:02;;;;;;;38.83;32.53;;;17.10;99.90;;;;;;5047141;28;20205;-79
2021/06/27 02:28:32;;;;;;;42.30;32.70;;;17.10;99.90;;;;;;5044684;28;20226;-78
2021/06/27 02:30:59;;;;;;;47.55;35.90;;;17.20;99.90;;;;;;5049319;28;20271;-78
2021/06/27 02:33:27;;;;;;;41.78;32.40;;;17.20;99.90;;;;;;5052510;28;20281;-80
2021/06/27 02:35:55;;;;;;;43.50;32.40;;;17.10;99.90;;;;;;5044284;28;20202;-79
2021/06/27 02:38:23;;;;;;;44.70;34.35;;;17.10;99.90;;;;;;5043652;28;20222;-78
2021/06/27 02:40:50;;;;;;;45.50;31.55;;;17.10;99.90;;;;;;5045469;28;20208;-81
2021/06/27 02:43:20;;;;;;;51.55;38.53;;;17.20;99.90;;;;;;5052465;28;20216;-80
2021/06/27 02:45:53;;;;;;;46.85;37.15;;;17.00;99.90;;;;;;5056604;28;20202;-81
2021/06/27 02:51:05;;;;;;;48.47;34.47;;;17.10;99.90;;;;;;5057955;28;20196;-79
2021/06/27 02:53:39;;;;;;;47.97;35.33;;;17.10;99.90;;;;;;5059446;28;20186;-77
2021/06/27 02:56:11;;;;;;;52.55;38.47;;;17.00;99.90;;;;;;5041676;28;20215;-78
2021/06/27 02:58:42;;;;;;;52.30;37.63;;;17.00;99.90;;;;;;5035081;23;20570;-69
2021/06/27 03:01:11;;;;;;;50.63;39.50;;;17.00;99.90;;;;;;5022494;28;20223;-68
2021/06/27 03:03:39;;;;;;;54.05;41.08;;;17.00;99.90;;;;;;5014508;28;20205;-68
2021/06/27 03:06:07;;;;;;;52.00;38.63;;;16.90;99.90;;;;;;5007313;28;20214;-68
2021/06/27 03:08:34;;;;;;;43.90;34.10;;;16.90;99.90;;;;;;5013973;28;20209;-68
2021/06/27 03:11:02;;;;;;;52.22;37.80;;;16.90;99.90;;;;;;5014663;28;20217;-68
2021/06/27 03:13:29;;;;;;;52.13;37.22;;;16.90;99.90;;;;;;5010863;28;20219;-69
2021/06/27 03:15:56;;;;;;;44.70;36.80;;;16.90;99.90;;;;;;5018269;28;20312;-68
2021/06/27 03:18:25;;;;;;;51.97;37.58;;;17.00;99.90;;;;;;5028403;28;20244;-69
2021/06/27 03:20:52;;;;;;;51.22;37.05;;;17.00;99.90;;;;;;4995047;28;20232;-68
2021/06/27 03:23:19;;;;;;;55.45;39.20;;;17.00;99.90;;;;;;5012309;28;20246;-68
2021/06/27 03:25:46;;;;;;;52.30;38.72;;;17.00;99.90;;;;;;5003521;28;20215;-68
2021/06/27 03:28:15;;;;;;;52.47;38.80;;;17.10;99.90;;;;;;5012128;28;20214;-68
2021/06/27 03:30:42;;;;;;;53.08;39.97;;;17.10;99.90;;;;;;5009561;28;20213;-68
2021/06/27 03:33:11;;;;;;;43.95;35.15;;;17.00;99.90;;;;;;5027681;28;20671;-68
2021/06/27 03:35:39;;;;;;;51.40;39.22;;;17.00;99.90;;;;;;5009364;28;20203;-68
2021/06/27 03:38:11;;;;;;;46.95;33.65;;;17.00;99.90;;;;;;5011904;28;20303;-68
2021/06/27 03:40:41;;;;;;;53.33;37.47;;;17.10;99.90;;;;;;5016857;28;20291;-68
2021/06/27 03:43:08;;;;;;;54.85;35.92;;;17.10;99.90;;;;;;5015750;28;20234;-68
2021/06/27 03:45:37;;;;;;;50.08;39.03;;;17.10;99.90;;;;;;5022568;28;20657;-68
2021/06/27 03:48:05;;;;;;;46.22;35.75;;;17.10;99.90;;;;;;5015112;28;20211;-68
2021/06/27 03:50:32;;;;;;;43.63;36.20;;;17.10;99.90;;;;;;5013719;28;20197;-69
2021/06/27 03:53:01;;;;;;;53.72;38.70;;;17.20;99.90;;;;;;5008578;28;20254;-68
2021/06/27 03:55:29;;;;;;;47.00;36.47;;;17.20;99.90;;;;;;5017249;28;20249;-69
2021/06/27 03:57:56;;;;;;;48.33;37.00;;;17.30;99.90;;;;;;5010541;28;20211;-68
2021/06/27 04:00:24;;;;;;;49.75;37.53;;;17.40;99.90;;;;;;5005648;28;20217;-68
2021/06/27 04:02:51;;;;;;;39.67;32.80;;;17.40;99.90;;;;;;5013117;28;20227;-68
2021/06/27 04:05:19;;;;;;;38.77;33.13;;;17.50;99.90;;;;;;5013105;28;20222;-68
2021/06/27 04:07:46;;;;;;;42.90;34.43;;;17.80;99.90;;;;;;5018528;28;20460;-67
2021/06/27 04:10:16;;;;;;;41.60;32.17;;;18.30;99.90;;;;;;5008417;28;20443;-68
2021/06/27 04:12:43;;;;;;;34.10;30.33;;;19.00;99.90;;;;;;5007211;28;20553;-68
2021/06/27 04:15:10;;;;;;;33.57;27.00;;;19.80;99.90;;;;;;5021714;28;20454;-68
2021/06/27 04:17:38;;;;;;;30.43;26.00;;;20.50;99.90;;;;;;5018780;28;20443;-68
2021/06/27 04:20:08;;;;;;;28.83;24.43;;;21.30;99.90;;;;;;5011625;28;20622;-68
2021/06/27 04:22:35;;;;;;;32.60;27.40;;;22.00;99.90;;;;;;5013540;28;20478;-68
2021/06/27 04:25:03;;;;;;;33.83;28.17;;;22.60;99.90;;;;;;5010280;28;20477;-68
2021/06/27 04:27:31;;;;;;;29.53;26.33;;;23.10;99.90;;;;;;5009250;28;20898;-68
2021/06/27 04:29:59;;;;;;;29.23;26.13;;;23.70;99.90;;;;;;5012391;28;20474;-68
2021/06/27 04:32:26;;;;;;;32.47;29.07;;;24.20;99.90;;;;;;5014657;28;20467;-69
2021/06/27 04:34:54;;;;;;;30.47;25.70;;;24.70;99.90;;;;;;5013638;28;20458;-67
2021/06/27 04:37:21;;;;;;;27.90;24.60;;;25.10;99.90;;;;;;5009919;28;20459;-67
2021/06/27 04:39:49;;;;;;;32.77;29.37;;;25.60;99.90;;;;;;5010564;28;20487;-67
2021/06/27 04:42:17;;;;;;;31.70;28.20;;;25.90;98.90;;;;;;5008254;28;20475;-68
2021/06/27 04:44:46;;;;;;;24.83;22.30;;;26.30;98.30;;;;;;5008783;28;20454;-67
2021/06/27 04:47:13;;;;;;;30.20;27.07;;;26.80;97.00;;;;;;5016751;28;20439;-69
2021/06/27 04:49:42;;;;;;;29.03;26.03;;;26.90;95.70;;;;;;5002307;28;20446;-68
2021/06/27 04:52:10;;;;;;;28.27;25.40;;;26.90;95.70;;;;;;5006704;28;20505;-68
2021/06/27 04:54:38;;;;;;;25.40;21.80;;;27.00;95.40;;;;;;5013373;28;20455;-67
2021/06/27 04:57:06;;;;;;;25.60;23.03;;;27.40;94.80;;;;;;5008170;28;20459;-67
2021/06/27 04:59:33;;;;;;;28.07;25.23;;;27.80;93.90;;;;;;5009222;28;20495;-69
2021/06/27 05:02:02;;;;;;;26.00;22.27;;;28.10;92.90;;;;;;5009661;28;20970;-67
2021/06/27 05:04:30;;;;;;;28.17;25.40;;;28.30;92.40;;;;;;5008579;28;20833;-68
2021/06/27 05:06:57;;;;;;;26.13;23.40;;;28.40;91.90;;;;;;5011307;28;20922;-68
2021/06/27 05:09:24;;;;;;;24.70;22.10;;;28.70;91.70;;;;;;5008280;28;20444;-67
2021/06/27 05:11:52;;;;;;;22.80;20.50;;;28.90;90.90;;;;;;5005088;28;20471;-68
2021/06/27 05:14:19;;;;;;;24.43;21.80;;;29.10;90.30;;;;;;5009620;28;20555;-69
2021/06/27 05:16:46;;;;;;;23.33;21.20;;;29.30;89.70;;;;;;5015720;28;20456;-68
2021/06/27 05:19:14;;;;;;;24.83;22.30;;;29.30;89.80;;;;;;5004424;28;20974;-69
2021/06/27 05:21:42;;;;;;;24.00;21.50;;;29.40;89.60;;;;;;5001232;28;20468;-68
2021/06/27 05:24:09;;;;;;;23.77;21.23;;;29.40;89.20;;;;;;5020201;28;20458;-68
2021/06/27 05:26:36;;;;;;;22.20;19.93;;;28.90;89.80;;;;;;5011738;28;20448;-68
2021/06/27 05:29:03;;;;;;;22.87;20.57;;;28.40;90.30;;;;;;5006927;28;20514;-69
2021/06/27 05:31:33;;;;;;;25.23;20.83;;;28.00;90.90;;;;;;5009088;28;20475;-70
2021/06/27 05:34:00;;;;;;;23.90;21.50;;;27.90;91.40;;;;;;5012247;28;20456;-68
2021/06/27 05:36:29;;;;;;;26.70;24.20;;;27.90;91.80;;;;;;5004268;28;20570;-68
2021/06/27 05:38:56;;;;;;;24.77;22.20;;;28.30;91.40;;;;;;5016160;28;20455;-67
2021/06/27 05:41:23;;;;;;;22.17;19.70;;;28.90;90.50;;;;;;4996938;28;20459;-68
2021/06/27 05:43:50;;;;;;;21.90;19.70;;;29.40;89.80;;;;;;4999047;28;20533;-68
2021/06/27 05:46:17;;;;;;;21.30;19.30;;;29.70;88.10;;;;;;5015227;28;20451;-68
2021/06/27 05:48:44;;;;;;;21.60;19.50;;;30.20;86.90;;;;;;5019276;28;20455;-68
2021/06/27 05:51:12;;;;;;;20.23;18.23;;;30.40;85.90;;;;;;5004716;28;20468;-68
2021/06/27 05:53:40;;;;;;;22.27;20.07;;;30.20;85.80;;;;;;5008663;28;20502;-67
2021/06/27 05:56:10;;;;;;;22.67;20.40;;;29.90;86.00;;;;;;5012542;28;20545;-67
2021/06/27 05:58:38;;;;;;;21.43;19.00;;;29.70;86.90;;;;;;5020576;28;20546;-68
2021/06/27 06:01:06;;;;;;;20.80;18.80;;;29.80;86.80;;;;;;5023310;28;20581;-69
2021/06/27 06:03:33;;;;;;;20.80;18.80;;;30.40;85.60;;;;;;5016818;28;20437;-68
2021/06/27 06:06:00;;;;;;;20.50;18.60;;;31.30;83.70;;;;;;5014983;28;20483;-68
2021/06/27 06:08:29;;;;;;;19.67;17.87;;;31.80;81.70;;;;;;4999414;28;20814;-68
2021/06/27 06:10:58;;;;;;;19.03;17.20;;;32.10;81.50;;;;;;5007357;28;20455;-68
2021/06/27 06:13:25;;;;;;;20.53;18.40;;;32.30;80.20;;;;;;5002276;28;20983;-70
2021/06/27 06:15:52;;;;;;;22.70;20.40;;;32.30;79.70;;;;;;5017827;28;20447;-68
2021/06/27 06:18:19;;;;;;;19.37;17.37;;;32.50;79.10;;;;;;5004096;28;20444;-68
2021/06/27 06:20:46;;;;;;;19.03;17.33;;;32.50;77.90;;;;;;5002774;28;20523;-69
2021/06/27 06:23:14;;;;;;;19.57;17.57;;;32.30;73.60;;;;;;5011003;28;20852;-68
2021/06/27 06:25:41;;;;;;;17.30;15.47;;;32.30;76.50;;;;;;5009472;28;20934;-68
2021/06/27 06:28:09;;;;;;;13.60;12.40;;;32.40;75.20;;;;;;5012616;28;20454;-69
2021/06/27 06:30:37;;;;;;;13.53;12.37;;;32.60;74.00;;;;;;5009867;28;20436;-69
2021/06/27 06:33:04;;;;;;;13.00;11.80;;;33.30;71.60;;;;;;5020193;28;20969;-69
2021/06/27 06:35:31;;;;;;;13.07;11.77;;;33.80;68.70;;;;;;5017659;28;20946;-68
2021/06/27 06:37:59;;;;;;;15.00;13.70;;;34.10;68.10;;;;;;5015105;28;20440;-69
2021/06/27 06:40:26;;;;;;;10.73;9.63;;;34.50;66.80;;;;;;5008780;28;20492;-68
2021/06/27 06:42:53;;;;;;;14.20;13.10;;;34.40;66.40;;;;;;5009408;28;20801;-68
2021/06/27 06:45:22;;;;;;;12.40;11.30;;;34.60;66.40;;;;;;5005201;28;20684;-69
2021/06/27 06:47:49;;;;;;;13.70;12.40;;;34.10;65.50;;;;;;5024286;28;20934;-69
2021/06/27 06:50:17;;;;;;;12.87;11.73;;;33.90;66.60;;;;;;5021642;28;20448;-67
2021/06/27 06:52:45;;;;;;;12.13;10.93;;;33.80;66.10;;;;;;5020261;28;20466;-69
2021/06/27 06:55:13;;;;;;;13.77;12.57;;;34.50;65.40;;;;;;5016536;28;20959;-70
2021/06/27 06:57:41;;;;;;;12.50;11.40;;;34.30;65.50;;;;;;5027434;28;21027;-69
2021/06/27 07:00:10;;;;;;;13.77;12.30;;;34.90;64.00;;;;;;5014666;28;20491;-69
2021/06/27 07:02:39;;;;;;;12.17;11.10;;;34.90;62.80;;;;;;5019379;28;20463;-68
2021/06/27 07:05:08;;;;;;;12.13;11.10;;;34.70;62.50;;;;;;5012719;28;20459;-69
2021/06/27 07:07:36;;;;;;;14.27;12.80;;;34.50;64.10;;;;;;5012318;28;20483;-68
2021/06/27 07:10:04;;;;;;;10.27;9.37;;;34.20;64.50;;;;;;5009336;28;20458;-69
2021/06/27 07:12:31;;;;;;;12.70;11.60;;;34.40;63.70;;;;;;5013206;28;20468;-69
2021/06/27 07:14:59;;;;;;;14.10;12.90;;;34.80;62.40;;;;;;5011450;28;20464;-69
2021/06/27 07:17:26;;;;;;;11.97;10.97;;;35.10;62.60;;;;;;5012341;28;20796;-68
2021/06/27 07:19:55;;;;;;;12.47;11.27;;;35.10;63.50;;;;;;5009911;28;20494;-68
2021/06/27 07:22:22;;;;;;;12.37;11.23;;;34.90;62.50;;;;;;5002470;28;20471;-68
2021/06/27 07:24:50;;;;;;;12.40;11.30;;;34.80;63.00;;;;;;5010001;28;20451;-68
2021/06/27 07:27:17;;;;;;;13.77;12.13;;;34.70;63.30;;;;;;5008446;28;20441;-68
2021/06/27 07:29:45;;;;;;;12.20;10.97;;;35.30;61.80;;;;;;5017165;28;20490;-69
2021/06/27 07:32:12;;;;;;;11.50;10.50;;;35.50;61.50;;;;;;5011803;28;20998;-67
2021/06/27 07:34:39;;;;;;;12.00;11.00;;;35.60;61.40;;;;;;5019224;28;20926;-67
2021/06/27 07:37:09;;;;;;;11.90;10.70;;;35.60;60.30;;;;;;5007277;28;20458;-67
2021/06/27 07:39:36;;;;;;;12.87;11.77;;;36.50;59.20;;;;;;5011954;28;20448;-67
2021/06/27 07:42:04;;;;;;;11.67;10.47;;;36.40;59.20;;;;;;5007742;28;20460;-68
2021/06/27 07:44:31;;;;;;;13.80;10.93;;;36.40;59.00;;;;;;4998205;28;20454;-68
2021/06/27 07:47:05;;;;;;;11.17;10.17;;;36.70;58.20;;;;;;5015479;28;20828;-69
2021/06/27 07:49:32;;;;;;;10.73;9.83;;;36.40;58.50;;;;;;5010931;28;20835;-67
2021/06/27 07:52:00;;;;;;;12.33;11.17;;;36.50;58.20;;;;;;5013492;28;20973;-68
2021/06/27 07:54:28;;;;;;;11.87;10.77;;;36.50;57.60;;;;;;5007920;28;20471;-68
2021/06/27 09:26:29;;;;;;;9.37;8.47;;;37.20;52.40;;;;;;5004861;28;20541;-76
2021/06/27 09:28:57;;;;;;;12.73;8.57;;;37.40;53.80;;;;;;5010674;28;20951;-76
2021/06/27 09:31:49;;;;;;;9.40;8.63;;;37.40;54.20;;;;;;5002212;28;20490;-74
2021/06/27 09:34:17;;;;;;;8.90;8.10;;;36.60;54.30;;;;;;4999836;28;20484;-73
2021/06/27 09:36:47;;;;;;;8.30;7.60;;;36.20;54.70;;;;;;5011433;28;20448;-75
2021/06/27 09:39:16;;;;;;;9.30;8.40;;;35.90;56.10;;;;;;4995921;28;20449;-74
2021/06/27 09:41:53;;;;;;;8.97;8.10;;;36.10;56.10;;;;;;5002398;28;20968;-75
2021/06/27 09:44:22;;;;;;;9.37;8.57;;;36.40;56.10;;;;;;4998748;28;20467;-80
2021/06/27 09:46:51;;;;;;;9.83;8.83;;;36.40;56.30;;;;;;5007849;28;20510;-78
2021/06/27 09:49:20;;;;;;;9.13;8.33;;;36.50;54.10;;;;;;5000721;28;20448;-73
2021/06/27 09:51:53;;;;;;;9.27;8.47;;;35.90;54.40;;;;;;5009660;28;20591;-78
2021/06/27 09:54:22;;;;;;;8.23;7.43;;;35.40;55.40;;;;;;5000870;28;20635;-75
2021/06/27 09:56:51;;;;;;;7.27;6.67;;;35.70;55.70;;;;;;5010277;28;20447;-74
2021/06/27 09:59:19;;;;;;;9.07;8.23;;;36.00;55.50;;;;;;5014556;28;20446;-75
2021/06/27 10:01:47;;;;;;;9.03;8.23;;;36.30;55.70;;;;;;5011943;28;20814;-73
2021/06/27 10:04:27;;;;;;;9.57;8.80;;;36.90;55.20;;;;;;5011640;28;20586;-74
2021/06/27 10:06:56;;;;;;;9.03;8.33;;;36.80;53.90;;;;;;5007744;28;20498;-74
2021/06/27 10:09:25;;;;;;;8.40;7.20;;;36.10;54.50;;;;;;5008172;28;20444;-73
2021/06/27 10:12:00;;;;;;;8.27;7.50;;;34.80;54.40;;;;;;5010856;28;20496;-74
2021/06/27 10:14:30;;;;;;;7.20;6.60;;;34.50;55.80;;;;;;5005267;28;20558;-76
2021/06/27 10:16:58;;;;;;;8.47;7.67;;;34.00;57.40;;;;;;5001611;28;20449;-74
2021/06/27 10:19:26;;;;;;;8.07;7.23;;;33.50;59.40;;;;;;5012397;28;20443;-76
2021/06/27 10:21:55;;;;;;;14.30;8.00;;;33.00;60.50;;;;;;5011289;28;20447;-74
2021/06/27 10:24:23;;;;;;;8.60;7.60;;;33.10;61.60;;;;;;5005811;28;20562;-75
2021/06/27 10:26:50;;;;;;;8.83;6.93;;;33.60;60.50;;;;;;5006244;28;20927;-74
2021/06/27 10:29:20;;;;;;;8.53;7.83;;;34.20;59.00;;;;;;5006003;28;20448;-76
2021/06/27 10:31:49;;;;;;;9.93;9.13;;;34.00;58.70;;;;;;5006826;28;20996;-73
2021/06/27 10:34:16;;;;;;;13.20;7.70;;;33.40;61.40;;;;;;5012102;28;20572;-74
2021/06/27 10:36:46;;;;;;;7.53;6.93;;;33.00;62.40;;;;;;5010501;28;20454;-75
2021/06/27 10:39:17;;;;;;;8.87;7.97;;;32.90;63.10;;;;;;5005556;28;20454;-72
2021/06/27 10:41:56;;;;;;;7.10;6.50;;;32.70;63.30;;;;;;5009161;28;20452;-73
2021/06/27 10:44:26;;;;;;;7.67;7.07;;;32.40;64.30;;;;;;5010769;28;20463;-71
2021/06/27 10:46:55;;;;;;;10.20;8.80;;;32.30;63.80;;;;;;5004161;28;20457;-71
2021/06/27 10:49:59;;;;;;;8.50;7.80;;;32.20;63.50;;;;;;5008694;28;20444;-71
2021/06/27 10:52:27;;;;;;;8.87;8.00;;;32.20;64.00;;;;;;5013511;28;20487;-72
2021/06/27 10:55:19;;;;;;;8.30;7.57;;;32.10;63.90;;;;;;5011599;28;20478;-73
2021/06/27 10:58:04;;;;;;;8.50;7.70;;;31.70;65.90;;;;;;5012647;28;20820;-73
2021/06/27 11:01:08;;;;;;;8.30;7.53;;;31.90;66.40;;;;;;5009924;28;20587;-73
2021/06/27 11:03:40;;;;;;;8.27;7.47;;;32.10;65.80;;;;;;5050924;23;20509;-75
2021/06/27 11:06:23;;;;;;;7.27;6.57;;;32.40;65.30;;;;;;5028018;28;20534;-73
2021/06/27 11:08:55;;;;;;;8.97;8.13;;;32.50;65.20;;;;;;5024736;28;20443;-74
2021/06/27 11:11:25;;;;;;;9.03;8.13;;;32.70;64.50;;;;;;5022950;28;21058;-74
2021/06/27 11:14:16;;;;;;;8.70;7.60;;;32.70;64.80;;;;;;5026382;28;20471;-72
2021/06/27 11:17:01;;;;;;;7.70;7.10;;;32.70;64.60;;;;;;5030631;28;20447;-73
2021/06/27 11:19:30;;;;;;;7.70;6.97;;;32.40;64.40;;;;;;5032589;28;20451;-74
2021/06/27 11:22:14;;;;;;;8.47;7.63;;;32.00;65.20;;;;;;5024618;28;20443;-75
2021/06/27 11:24:42;;;;;;;7.80;7.10;;;31.60;66.60;;;;;;5029975;28;20458;-73
2021/06/27 11:27:28;;;;;;;9.70;8.90;;;31.30;66.30;;;;;;5024595;28;20955;-75
2021/06/27 11:29:56;;;;;;;8.37;7.57;;;30.90;66.30;;;;;;5028110;28;20449;-72
2021/06/27 11:32:49;;;;;;;7.57;6.87;;;30.50;68.40;;;;;;5030887;28;20515;-72
2021/06/27 11:35:42;;;;;;;7.03;6.33;;;30.20;69.40;;;;;;5032567;28;20951;-73
2021/06/27 11:38:30;;;;;;;8.57;7.77;;;29.90;69.70;;;;;;5027147;28;20503;-73
2021/06/27 11:40:58;;;;;;;8.23;7.47;;;29.80;71.60;;;;;;5024254;28;20443;-73
2021/06/27 11:43:58;;;;;;;7.43;6.67;;;30.00;71.20;;;;;;5026304;28;20549;-72
2021/06/27 11:46:34;;;;;;;7.07;6.57;;;30.20;70.10;;;;;;5026478;28;20826;-73
2021/06/27 11:49:05;;;;;;;6.20;5.60;;;30.10;67.80;;;;;;5028750;28;20830;-71
2021/06/27 11:51:37;;;;;;;6.53;5.90;;;30.30;68.30;;;;;;5028689;28;20483;-74
2021/06/27 11:54:05;;;;;;;7.30;6.70;;;30.40;67.70;;;;;;5027717;28;20534;-73
2021/06/27 11:57:05;;;;;;;7.00;6.40;;;30.60;66.90;;;;;;5029915;28;20469;-73
2021/06/27 11:59:36;;;;;;;7.90;7.20;;;30.70;68.60;;;;;;5032801;28;20450;-73
2021/06/27 12:02:28;;;;;;;8.23;7.27;;;30.40;66.70;;;;;;5025536;28;20491;-72
2021/06/27 12:04:58;;;;;;;6.97;6.37;;;29.90;67.60;;;;;;5022267;28;20932;-72
2021/06/27 12:07:26;;;;;;;6.73;6.23;;;29.80;68.30;;;;;;5024164;28;20878;-71
2021/06/27 12:09:55;;;;;;;6.60;6.03;;;29.40;68.90;;;;;;5029976;28;20467;-71
2021/06/27 12:12:40;;;;;;;6.90;6.30;;;29.40;69.80;;;;;;5021312;28;20470;-72
2021/06/27 12:15:47;;;;;;;7.50;6.30;;;29.60;69.50;;;;;;5030769;28;20480;-75
2021/06/27 12:25:34;;;;;;;7.43;6.77;;;29.50;69.80;;;;;;5085767;27;20639;-67
2021/06/27 12:28:04;;;;;;;6.23;5.73;;;29.20;71.60;;;;;;5050868;28;21034;-68
2021/06/27 12:30:40;;;;;;;6.70;5.93;;;29.10;72.00;;;;;;5065827;28;20444;-68
2021/06/27 12:33:09;;;;;;;7.90;7.20;;;29.40;72.20;;;;;;5064785;28;20450;-68
2021/06/27 12:35:39;;;;;;;7.23;6.53;;;29.70;72.00;;;;;;5079953;28;20788;-67
2021/06/27 12:38:07;;;;;;;6.80;6.30;;;29.80;72.40;;;;;;5071047;28;20905;-67
2021/06/27 12:40:41;;;;;;;6.43;5.83;;;29.90;71.90;;;;;;5077061;28;20456;-66
2021/06/27 12:43:37;;;;;;;6.20;5.70;;;29.80;72.00;;;;;;5068537;28;20884;-68
2021/06/27 12:46:30;;;;;;;7.03;6.40;;;29.70;69.70;;;;;;5075615;28;20949;-66
2021/06/27 12:49:18;;;;;;;7.90;5.90;;;29.60;68.60;;;;;;5070588;28;20673;-67
2021/06/27 12:51:48;;;;;;;7.33;6.63;;;29.50;69.60;;;;;;5079988;28;20890;-66
2021/06/27 12:54:24;;;;;;;6.30;5.80;;;29.70;70.20;;;;;;5073320;28;20466;-67
2021/06/27 12:57:02;;;;;;;6.60;6.00;;;29.90;71.60;;;;;;5067624;28;20822;-66
2021/06/27 12:59:48;;;;;;;7.60;6.47;;;30.10;71.90;;;;;;5065357;28;20445;-66
2021/06/27 13:02:17;;;;;;;6.67;6.07;;;30.40;71.90;;;;;;5066095;28;20449;-67
2021/06/27 13:04:54;;;;;;;6.90;6.30;;;30.30;68.00;;;;;;5062612;28;20484;-66
2021/06/27 13:07:26;;;;;;;5.60;5.10;;;30.00;68.60;;;;;;5068083;28;20639;-69
2021/06/27 13:10:06;;;;;;;6.80;5.60;;;29.70;69.70;;;;;;5064314;28;20457;-68
2021/06/27 13:12:50;;;;;;;7.00;6.40;;;29.70;70.50;;;;;;5066515;28;20995;-69
2021/06/27 13:15:19;;;;;;;6.93;6.33;;;29.30;70.50;;;;;;5070180;28;20544;-68
2021/06/27 13:17:48;;;;;;;6.20;5.60;;;29.30;71.40;;;;;;5076451;28;20464;-67
2021/06/27 13:20:17;;;;;;;5.77;5.27;;;29.40;72.00;;;;;;5068267;28;20445;-67
2021/06/27 13:22:59;;;;;;;6.63;5.90;;;29.60;72.00;;;;;;5072541;28;20472;-68
2021/06/27 13:28:52;;;;;;;6.70;6.20;;;30.10;70.80;;;;;;5061087;22;21013;-73
2021/06/27 13:31:29;;;;;;;5.37;4.90;;;30.40;70.70;;;;;;5035895;28;20445;-72
2021/06/27 13:33:59;;;;;;;6.10;5.50;;;30.50;69.80;;;;;;5030471;28;20776;-70
2021/06/27 13:36:28;;;;;;;5.30;4.80;;;30.50;68.80;;;;;;5016229;28;20440;-73
2021/06/27 13:38:57;;;;;;;6.00;5.50;;;30.30;69.40;;;;;;5011420;28;20452;-74
2021/06/27 13:41:26;;;;;;;5.47;4.97;;;29.90;70.60;;;;;;5011354;28;20813;-71
2021/06/27 13:43:57;;;;;;;7.70;6.63;;;29.60;69.60;;;;;;5012654;28;20482;-73
2021/06/27 13:46:25;;;;;;;6.40;5.90;;;29.30;70.90;;;;;;5013068;28;20452;-72
2021/06/27 13:48:52;;;;;;;7.03;6.43;;;29.00;70.60;;;;;;5011482;28;20433;-72
2021/06/27 13:51:21;;;;;;;5.83;5.33;;;28.80;70.80;;;;;;5009992;28;20451;-71
2021/06/27 13:53:48;;;;;;;6.20;5.60;;;28.60;72.40;;;;;;5002331;28;20448;-74
2021/06/27 13:56:16;;;;;;;6.80;6.20;;;28.50;73.80;;;;;;5005893;28;20454;-74
2021/06/27 13:58:43;;;;;;;6.40;5.80;;;28.50;75.30;;;;;;5160606;22;20533;-74
2021/06/27 14:01:12;;;;;;;5.53;5.03;;;28.70;72.60;;;;;;5076479;28;20433;-72
2021/06/27 14:03:41;;;;;;;6.23;5.73;;;28.70;73.10;;;;;;5071254;28;20476;-73
2021/06/27 14:06:08;;;;;;;6.30;5.80;;;28.90;73.50;;;;;;5081971;28;20769;-73
2021/06/27 14:08:35;;;;;;;6.83;6.13;;;29.20;72.60;;;;;;5074977;28;20441;-72
2021/06/27 14:11:02;;;;;;;6.30;5.80;;;29.60;72.90;;;;;;5074293;28;20452;-73
2021/06/27 14:13:30;;;;;;;6.13;5.53;;;29.80;72.40;;;;;;5078672;28;20477;-73
2021/06/27 14:15:57;;;;;;;6.50;5.97;;;30.10;71.70;;;;;;5065772;28;20540;-73
2021/06/27 14:18:27;;;;;;;6.07;5.57;;;30.10;71.80;;;;;;5089121;28;20817;-72
2021/06/27 14:20:55;;;;;;;7.37;5.97;;;30.20;70.50;;;;;;5073588;28;20438;-75
2021/06/27 14:23:23;;;;;;;7.30;5.70;;;30.40;69.90;;;;;;5074820;28;20544;-72
2021/06/27 14:25:51;;;;;;;6.67;5.53;;;30.40;70.00;;;;;;5074169;28;20491;-72
2021/06/27 14:28:19;;;;;;;8.00;6.60;;;30.50;70.30;;;;;;5077715;28;20451;-73
2021/06/27 14:30:47;;;;;;;6.37;5.87;;;30.60;70.30;;;;;;5087719;28;20468;-74
2021/06/27 14:33:16;;;;;;;5.13;4.73;;;30.60;70.00;;;;;;5069312;28;20472;-73
2021/06/27 14:35:44;;;;;;;5.67;5.20;;;30.50;70.00;;;;;;5072040;28;20448;-74
2021/06/27 14:38:11;;;;;;;6.30;5.80;;;30.50;69.80;;;;;;5073132;28;20527;-75